General Aviation Weather

Text Reports

Enter one or more of the following location identifiers separated by a space:

Zip Code, Four-Character ICAO or Three-Character IATA airport codes.

METAR - Aviation Routine Weather Report
KETB - West Bend, Wisconsin
Updated at 3:10 PM GMT on December 21, 2014 (9:10 AM CST):
METAR KETB 211510Z AUTO 16004KT 3SM -SN OVC019 00/M02 A3014 RMK AO2
TAF - Terminal Area Forecast
KETB - West Bend, Wisconsin
Updated at 3:10 PM GMT on December 21, 2014 (9:10 AM CST):
No TAF is currently available for this location.
Decoded:
No decoded TAF is available.
PIREP - Pilot Weather Report
KETB - West Bend, Wisconsin
Updated at 3:10 PM GMT on December 21, 2014 (9:10 AM CST):
No PIREP is currently available for this location.
AIRMET - Airmens Meteorological Information
KETB - West Bend, Wisconsin
Updated at 3:10 PM GMT on December 21, 2014 (9:10 AM CST):
No AIRMET is currently available for this location.
SIGMET - Significant Meteorological Information
KETB - West Bend, Wisconsin
Updated at 3:10 PM GMT on December 21, 2014 (9:10 AM CST):
No SIGMET is currently available for this location.
NOTAM - Notice to Airmen
KETB - West Bend, Wisconsin
Updated at 3:10 PM GMT on December 21, 2014 (9:10 AM CST):
No NOTAM is currently available for this location.
Forecast Area
KETB - West Bend, Wisconsin
Updated at 3:10 PM GMT on December 21, 2014 (9:10 AM CST):
No NOTAM is currently available for this location.
Aviation Weather Maps